Time;durP1;ratioP1;P1;durP2;ratioP2;P2;SDS_P1;SDS_P2;PMS_P1;PMS_P2;Temp;Humidity;BMP_temperature;BMP_pressure;BME280_temperature;BME280_humidity;BME280_pressure;Samples;Min_cycle;Max_cycle;Signal;HPM_P1;HPM_P2
2023/07/04 00:01:18;;;;;;;9.48;2.78;;;;;;;-142.75;100.00;76011.28;5061732;28;20054;-64
2023/07/04 00:03:45;;;;;;;10.37;2.03;;;;;;;-142.75;100.00;76044.75;5062003;28;20027;-66
2023/07/04 00:06:14;;;;;;;15.50;2.67;;;;;;;-142.75;100.00;76052.63;5061971;28;20354;-65
2023/07/04 00:08:39;;;;;;;8.95;1.80;;;;;;;-142.75;100.00;76078.19;5061932;28;20512;-65
2023/07/04 00:11:06;;;;;;;8.45;1.60;;;;;;;-142.75;100.00;76076.22;5060715;28;20017;-65
2023/07/04 00:13:33;;;;;;;7.13;1.75;;;;;;;-142.75;100.00;76088.03;5042110;28;20035;-65
2023/07/04 00:15:59;;;;;;;8.00;1.80;;;;;;;-142.75;100.00;76101.81;5056411;28;20123;-66
2023/07/04 00:18:27;;;;;;;4.97;1.27;;;;;;;-142.75;100.00;76111.66;5061886;28;20035;-65
2023/07/04 00:21:02;;;;;;;7.30;1.83;;;;;;;-142.75;100.00;76129.38;5061770;28;20082;-66
2023/07/04 00:23:31;;;;;;;8.80;1.90;;;;;;;-142.75;100.00;76141.19;5061362;28;20083;-66
2023/07/04 00:25:57;;;;;;;8.95;1.40;;;;;;;-142.75;100.00;76160.88;5060271;28;20102;-67
2023/07/04 00:28:24;;;;;;;9.60;1.50;;;;;;;-142.75;100.00;76174.66;5061466;28;20024;-66
2023/07/04 00:30:54;;;;;;;3.38;1.05;;;;;;;-142.75;100.00;76184.50;5061469;28;20028;-67
2023/07/04 00:33:24;;;;;;;3.80;0.93;;;;;;;-142.75;100.00;76180.56;5061805;28;20389;-67
2023/07/04 00:36:03;;;;;;;4.32;1.42;;;;;;;-142.75;100.00;76190.41;5059463;28;20036;-66
2023/07/04 00:38:32;;;;;;;3.60;1.00;;;;;;;-142.75;100.00;76210.06;5043927;28;20516;-67
2023/07/04 00:41:00;;;;;;;5.57;1.38;;;;;;;-142.75;100.00;76202.19;5060948;28;20035;-67
2023/07/04 00:43:45;;;;;;;8.20;1.60;;;;;;;-142.75;100.00;76212.03;5061371;28;20167;-67
2023/07/04 00:46:14;;;;;;;10.27;1.10;;;;;;;-142.75;100.00;76225.81;5061325;28;20116;-66
2023/07/04 00:48:44;;;;;;;5.65;1.02;;;;;;;-142.75;100.00;76223.84;5061225;28;20024;-66
2023/07/04 00:51:11;;;;;;;11.48;1.45;;;;;;;-142.75;100.00;76227.78;5060147;28;20119;-66
2023/07/04 00:53:37;;;;;;;5.57;1.25;;;;;;;-142.75;100.00;76212.03;5061484;28;20039;-66
2023/07/04 00:56:05;;;;;;;3.42;1.00;;;;;;;-142.75;100.00;76206.13;5044679;28;20108;-67
2023/07/04 00:58:32;;;;;;;6.65;1.13;;;;;;;-142.75;100.00;76204.16;5041902;28;20033;-67
2023/07/04 01:00:57;;;;;;;5.80;1.23;;;;;;;-142.75;100.00;76212.03;5044304;28;20033;-67
2023/07/04 01:03:24;;;;;;;4.97;1.77;;;;;;;-142.75;100.00;76233.69;5045107;28;20075;-67
2023/07/04 01:06:00;;;;;;;7.45;1.38;;;;;;;-142.75;100.00;76223.84;5044804;28;20091;-67
2023/07/04 01:08:35;;;;;;;13.10;1.60;;;;;;;-142.75;100.00;76231.72;5048299;28;20029;-67
2023/07/04 01:11:05;;;;;;;5.00;1.08;;;;;;;-142.75;100.00;76231.72;5064398;28;20460;-66
2023/07/04 01:13:39;;;;;;;5.60;1.00;;;;;;;-142.75;100.00;76227.78;5064462;28;20550;-66
2023/07/04 01:16:10;;;;;;;4.57;0.90;;;;;;;-142.75;100.00;76235.66;5064854;28;20028;-66
2023/07/04 01:18:37;;;;;;;6.45;1.02;;;;;;;-142.75;100.00;76247.47;5064703;28;20039;-66
2023/07/04 01:21:05;;;;;;;8.90;1.58;;;;;;;-142.75;100.00;76235.66;5058990;28;20484;-66
2023/07/04 01:23:36;;;;;;;7.10;1.52;;;;;;;-142.75;100.00;76237.63;5044662;28;20063;-66
2023/07/04 01:26:24;;;;;;;7.28;1.02;;;;;;;-142.75;100.00;76219.91;5044845;28;20033;-65
2023/07/04 01:28:53;;;;;;;6.00;1.05;;;;;;;-142.75;100.00;76214.00;5044813;28;20086;-66
2023/07/04 01:31:20;;;;;;;5.97;1.02;;;;;;;-142.75;100.00;76219.91;5044885;28;20033;-66
2023/07/04 01:33:48;;;;;;;6.00;0.95;;;;;;;-142.75;100.00;76214.00;5044316;28;20234;-66
2023/07/04 01:36:15;;;;;;;6.03;0.90;;;;;;;-142.75;100.00;76208.09;5044499;28;20120;-66
2023/07/04 01:38:41;;;;;;;4.53;1.15;;;;;;;-142.75;100.00;76215.97;5045259;28;20071;-66
2023/07/04 01:41:06;;;;;;;8.45;1.30;;;;;;;-142.75;100.00;76229.75;5046479;28;20029;-66
2023/07/04 01:43:32;;;;;;;6.07;0.90;;;;;;;-142.75;100.00;76219.91;5064023;28;20056;-66
2023/07/04 01:45:57;;;;;;;4.38;1.30;;;;;;;-142.75;100.00;76239.59;5064084;28;20029;-67
2023/07/04 01:48:22;;;;;;;3.13;0.98;;;;;;;-142.75;100.00;76241.56;5064352;28;20093;-66
2023/07/04 01:50:48;;;;;;;5.85;0.93;;;;;;;-142.75;100.00;76245.50;5063634;28;20482;-67
2023/07/04 01:53:15;;;;;;;6.65;2.05;;;;;;;-142.75;100.00;76235.66;5063613;28;20064;-67
2023/07/04 01:55:40;;;;;;;6.72;0.98;;;;;;;-142.75;100.00;76239.59;5063751;28;20107;-66
2023/07/04 01:58:06;;;;;;;7.35;0.95;;;;;;;-142.75;100.00;76231.72;5064318;28;20107;-67
2023/07/04 02:00:31;;;;;;;6.53;0.93;;;;;;;-142.75;100.00;76233.69;5058964;28;20403;-66
2023/07/04 02:02:57;;;;;;;4.35;0.80;;;;;;;-142.75;100.00;76231.72;5044046;28;20029;-67
2023/07/04 02:05:22;;;;;;;3.83;1.20;;;;;;;-142.75;100.00;76219.91;5062594;28;20024;-66
2023/07/04 02:07:48;;;;;;;7.82;1.08;;;;;;;-142.75;100.00;76212.03;5064433;28;20385;-67
2023/07/04 02:10:13;;;;;;;8.48;0.98;;;;;;;-142.75;100.00;76202.19;5063433;28;22313;-66
2023/07/04 02:12:39;;;;;;;5.45;1.25;;;;;;;-142.75;100.00;76194.34;5063483;28;20392;-67
2023/07/04 02:15:06;;;;;;;5.13;0.90;;;;;;;-142.75;100.00;76186.47;5063564;28;20059;-67
2023/07/04 02:17:32;;;;;;;3.42;0.73;;;;;;;-142.75;100.00;76186.47;5063548;28;20081;-66
2023/07/04 02:19:57;;;;;;;2.17;0.80;;;;;;;-142.75;100.00;76180.56;5062990;28;20492;-66
2023/07/04 02:22:22;;;;;;;8.77;1.38;;;;;;;-142.75;100.00;76184.50;5063192;28;20426;-66
2023/07/04 02:24:48;;;;;;;7.05;1.35;;;;;;;-142.75;100.00;76186.47;5061459;28;20051;-65
2023/07/04 02:27:13;;;;;;;9.40;0.88;;;;;;;-142.75;100.00;76194.34;5061075;28;20033;-67
2023/07/04 02:29:39;;;;;;;6.00;1.02;;;;;;;-142.75;100.00;76196.31;5063184;28;20052;-66
2023/07/04 02:32:04;;;;;;;4.55;0.90;;;;;;;-142.75;100.00;76202.19;5063412;28;20028;-66
2023/07/04 02:34:30;;;;;;;10.55;1.10;;;;;;;-142.75;100.00;76214.00;5062673;28;20027;-67
2023/07/04 02:36:55;;;;;;;9.55;1.05;;;;;;;-142.75;100.00;76219.91;5062941;28;20024;-66
2023/07/04 02:39:21;;;;;;;7.35;1.40;;;;;;;-142.75;100.00;76231.72;5043900;28;20028;-66
2023/07/04 02:41:46;;;;;;;5.60;0.77;;;;;;;-142.75;100.00;76241.56;5043139;28;20021;-66
2023/07/04 02:44:12;;;;;;;6.50;1.10;;;;;;;-142.75;100.00;76235.66;5044233;28;20017;-67
2023/07/04 02:46:37;;;;;;;7.35;1.10;;;;;;;-142.75;100.00;76241.56;5042323;28;20024;-67
2023/07/04 02:49:05;;;;;;;4.72;1.00;;;;;;;-142.75;100.00;76261.25;5042951;28;20373;-66
2023/07/04 02:51:32;;;;;;;5.70;1.10;;;;;;;-142.75;100.00;76257.31;5042948;28;20021;-66
2023/07/04 02:53:58;;;;;;;9.55;1.30;;;;;;;-142.75;100.00;76278.97;5042452;28;20028;-66
2023/07/04 02:56:23;;;;;;;6.90;1.13;;;;;;;-142.75;100.00;76269.13;5062947;28;20024;-67
2023/07/04 02:58:48;;;;;;;6.60;0.95;;;;;;;-142.75;100.00;76275.03;5062729;28;20468;-66
2023/07/04 03:01:14;;;;;;;5.45;0.98;;;;;;;-142.75;100.00;76267.16;5062688;28;20036;-66
2023/07/04 03:03:39;;;;;;;6.68;1.10;;;;;;;-142.75;100.00;76267.16;5055374;28;20027;-67
2023/07/04 03:06:05;;;;;;;6.10;0.95;;;;;;;-142.75;100.00;76273.06;5062972;28;20021;-67
2023/07/04 03:08:30;;;;;;;4.00;1.27;;;;;;;-142.75;100.00;76259.28;5063930;28;20060;-67
2023/07/04 03:10:56;;;;;;;6.15;1.02;;;;;;;-142.75;100.00;76278.97;5062265;28;20052;-67
2023/07/04 03:13:21;;;;;;;14.60;1.95;;;;;;;-142.75;100.00;76282.91;5059932;28;20153;-67
2023/07/04 03:15:46;;;;;;;4.68;0.90;;;;;;;-142.75;100.00;76280.94;5042618;28;20460;-66
2023/07/04 03:18:12;;;;;;;7.55;1.23;;;;;;;-142.75;100.00;76275.03;5042458;28;20028;-66
2023/07/04 03:20:37;;;;;;;4.80;1.33;;;;;;;-142.75;100.00;76282.91;5042567;28;20025;-66
2023/07/04 03:23:03;;;;;;;5.32;1.35;;;;;;;-142.75;100.00;76277.00;5041388;28;20112;-67
2023/07/04 03:25:29;;;;;;;4.72;0.80;;;;;;;-142.75;100.00;76275.03;5041696;28;20035;-66
2023/07/04 03:27:54;;;;;;;5.10;1.05;;;;;;;-142.75;100.00;76277.00;5044189;28;20108;-66
2023/07/04 03:30:20;;;;;;;7.72;1.25;;;;;;;-142.75;100.00;76278.97;5061159;28;20147;-66
2023/07/04 03:32:45;;;;;;;10.02;1.17;;;;;;;-142.75;100.00;76288.81;5061228;28;20035;-67
2023/07/04 03:35:11;;;;;;;8.70;1.00;;;;;;;-142.75;100.00;76286.84;5061645;28;20040;-67
2023/07/04 03:37:37;;;;;;;6.40;1.60;;;;;;;-142.75;100.00;76284.88;5062163;28;20179;-66
2023/07/04 03:40:08;;;;;;;6.20;1.08;;;;;;;-142.75;100.00;76286.84;5061276;28;20024;-67
2023/07/04 03:42:36;;;;;;;8.15;1.15;;;;;;;-142.75;100.00;76292.75;5061731;28;20054;-66
2023/07/04 03:45:02;;;;;;;10.27;1.00;;;;;;;-142.75;100.00;76286.84;5061420;28;20031;-66
2023/07/04 03:47:27;;;;;;;4.78;1.58;;;;;;;-142.75;100.00;76286.84;5061118;28;20111;-66
2023/07/04 03:49:52;;;;;;;8.43;1.40;;;;;;;-142.75;100.00;76282.91;5046216;28;20059;-66
2023/07/04 03:52:18;;;;;;;5.45;1.25;;;;;;;-142.75;100.00;76290.78;5041506;28;20157;-66
2023/07/04 03:54:43;;;;;;;5.78;1.10;;;;;;;-142.75;100.00;76300.63;5041622;28;20025;-67
2023/07/04 03:57:09;;;;;;;6.75;1.13;;;;;;;-142.75;100.00;76302.59;5041812;28;20025;-66
2023/07/04 03:59:35;;;;;;;6.95;1.10;;;;;;;-142.75;100.00;76300.63;5041480;28;20028;-66
2023/07/04 04:02:00;;;;;;;6.75;1.25;;;;;;;-142.75;100.00;76298.66;5057313;28;20468;-66
2023/07/04 04:04:26;;;;;;;6.15;1.42;;;;;;;-142.75;100.00;76306.53;5052342;28;20018;-66
2023/07/04 04:06:55;;;;;;;6.25;1.30;;;;;;;-142.75;100.00;76304.56;5040346;28;20029;-67
2023/07/04 04:09:21;;;;;;;4.25;0.98;;;;;;;-142.75;100.00;76306.53;5042347;28;20028;-66
2023/07/04 04:11:46;;;;;;;5.10;1.20;;;;;;;-142.75;100.00;76308.50;5040233;28;20526;-66
2023/07/04 04:14:12;;;;;;;12.75;1.38;;;;;;;-142.75;100.00;76308.50;5040976;28;20025;-65
2023/07/04 04:16:37;;;;;;;7.20;1.30;;;;;;;-142.75;100.00;76340.00;5041417;28;20103;-66
2023/07/04 04:19:03;;;;;;;7.53;1.40;;;;;;;-142.75;100.00;76324.25;5041254;28;20060;-66
2023/07/04 04:21:28;;;;;;;5.90;1.67;;;;;;;-142.75;100.00;76318.34;5050184;28;20469;-67
2023/07/04 04:23:54;;;;;;;8.10;1.40;;;;;;;-142.75;100.00;76312.44;5048514;28;20025;-66
2023/07/04 04:26:21;;;;;;;9.63;1.35;;;;;;;-142.75;100.00;76328.19;5041063;28;20503;-66
2023/07/04 04:28:46;;;;;;;6.50;0.88;;;;;;;-142.75;100.00;76330.16;5041416;28;20037;-66
2023/07/04 04:31:14;;;;;;;6.43;1.00;;;;;;;-142.75;100.00;76324.25;5040837;28;20033;-66
2023/07/04 04:33:39;;;;;;;5.85;1.10;;;;;;;-142.75;100.00;76328.19;5042530;28;20021;-67
2023/07/04 04:36:04;;;;;;;4.80;1.27;;;;;;;-142.75;100.00;76322.28;5051086;28;20074;-66
2023/07/04 04:38:30;;;;;;;4.47;1.35;;;;;;;-142.75;100.00;76318.34;5045907;28;20024;-66
2023/07/04 04:41:04;;;;;;;7.38;1.23;;;;;;;-142.75;100.00;76300.63;5044951;28;20070;-67
2023/07/04 04:43:32;;;;;;;8.32;0.80;;;;;;;-142.75;100.00;76302.59;5044278;28;20451;-66
2023/07/04 04:45:58;;;;;;;5.30;1.08;;;;;;;-142.75;100.00;76314.41;5045480;28;20680;-66
2023/07/04 04:48:29;;;;;;;8.35;1.38;;;;;;;-142.75;100.00;76314.41;5064782;28;20024;-66
2023/07/04 04:50:59;;;;;;;5.93;1.10;;;;;;;-142.75;100.00;76304.56;5064422;28;20031;-66
2023/07/04 04:53:25;;;;;;;4.28;1.02;;;;;;;-142.75;100.00;76294.72;5064516;28;20082;-66
2023/07/04 04:55:51;;;;;;;6.72;1.60;;;;;;;-142.75;100.00;76278.97;5061776;28;20028;-66
2023/07/04 04:58:18;;;;;;;13.35;1.20;;;;;;;-142.75;100.00;76277.00;5046171;28;20033;-66
2023/07/04 05:00:44;;;;;;;5.45;1.08;;;;;;;-142.75;100.00;76271.09;5047608;28;20084;-67
2023/07/04 05:03:10;;;;;;;8.13;1.33;;;;;;;-142.75;100.00;76267.16;5060722;28;20021;-66
2023/07/04 05:05:35;;;;;;;9.15;1.25;;;;;;;-142.75;100.00;76275.03;5044402;28;20104;-67
2023/07/04 05:08:00;;;;;;;6.15;1.27;;;;;;;-142.75;100.00;76277.00;5045878;28;20049;-66
2023/07/04 05:10:26;;;;;;;5.57;1.40;;;;;;;-142.75;100.00;76277.00;5045587;28;20090;-65
2023/07/04 05:12:51;;;;;;;12.75;1.02;;;;;;;-142.75;100.00;76271.09;5047276;28;20036;-67
2023/07/04 05:15:17;;;;;;;9.00;1.20;;;;;;;-142.75;100.00;76271.09;5067336;28;20036;-66
2023/07/04 05:17:42;;;;;;;8.90;1.30;;;;;;;-142.75;100.00;76257.31;5054968;28;20091;-66
2023/07/04 05:20:09;;;;;;;9.25;1.88;;;;;;;-142.75;100.00;76247.47;5048016;28;20086;-66
2023/07/04 05:22:34;;;;;;;7.70;1.27;;;;;;;-142.75;100.00;76235.66;5046825;28;20075;-66
2023/07/04 05:24:59;;;;;;;8.35;1.23;;;;;;;-142.75;100.00;76215.97;5047857;28;20432;-66
2023/07/04 05:27:26;;;;;;;5.97;1.05;;;;;;;-142.75;100.00;76212.03;5047765;28;20029;-66
2023/07/04 05:29:51;;;;;;;8.20;1.40;;;;;;;-142.75;100.00;76196.31;5047519;28;20553;-66
2023/07/04 05:32:16;;;;;;;10.18;1.50;;;;;;;-142.75;100.00;76206.13;5046319;28;20028;-66
2023/07/04 05:34:46;;;;;;;7.78;1.27;;;;;;;-142.75;100.00;76180.56;5047482;28;20627;-65
2023/07/04 05:37:12;;;;;;;7.57;1.55;;;;;;;-142.75;100.00;76182.53;5047908;28;20067;-66
2023/07/04 05:39:37;;;;;;;7.57;1.25;;;;;;;-142.75;100.00;76180.56;5047936;28;20672;-66
2023/07/04 05:42:02;;;;;;;5.07;1.40;;;;;;;-142.75;100.00;76162.84;5047238;28;20497;-66
2023/07/04 05:44:29;;;;;;;6.45;1.00;;;;;;;-142.75;100.00;76141.19;5047019;28;20045;-66
2023/07/04 05:46:55;;;;;;;10.98;1.25;;;;;;;-142.75;100.00;76143.16;5047238;28;20090;-66
2023/07/04 05:49:20;;;;;;;11.13;1.40;;;;;;;-142.75;100.00;76129.38;5047378;28;20033;-66
2023/07/04 05:51:45;;;;;;;9.40;1.70;;;;;;;-142.75;100.00;76119.53;5046063;28;20074;-66
2023/07/04 05:54:11;;;;;;;8.13;1.55;;;;;;;-142.75;100.00;76129.38;5046910;28;20040;-66
2023/07/04 05:56:36;;;;;;;3.97;0.98;;;;;;;-142.75;100.00;76121.50;5047501;28;20540;-66
2023/07/04 05:59:02;;;;;;;8.77;1.65;;;;;;;-142.75;100.00;76131.34;5047491;28;20024;-66
2023/07/04 06:01:29;;;;;;;7.55;1.98;;;;;;;-142.75;100.00;76143.16;5046954;28;20037;-66
2023/07/04 06:03:55;;;;;;;6.03;1.17;;;;;;;-142.75;100.00;76143.16;5046997;28;20033;-66
2023/07/04 06:06:24;;;;;;;10.85;1.27;;;;;;;-142.75;100.00;76143.16;5053557;28;20103;-66
2023/07/04 06:08:51;;;;;;;7.95;1.27;;;;;;;-142.75;100.00;76137.25;5067515;28;20435;-66
2023/07/04 06:11:17;;;;;;;11.35;1.52;;;;;;;-142.75;100.00;76153.00;5065593;28;20442;-66
2023/07/04 06:13:42;;;;;;;10.38;1.58;;;;;;;-142.75;100.00;76133.31;5066739;28;20028;-66
2023/07/04 06:16:07;;;;;;;9.07;1.38;;;;;;;-142.75;100.00;76107.72;5066870;28;20036;-66
2023/07/04 06:18:33;;;;;;;13.13;1.58;;;;;;;-142.75;100.00;76070.34;5066750;28;20637;-66
2023/07/04 06:21:05;;;;;;;6.95;1.40;;;;;;;-142.75;100.00;76038.84;5053467;28;20082;-65
2023/07/04 06:23:30;;;;;;;4.47;1.17;;;;;;;-142.75;100.00;76074.25;5046739;28;20064;-65
2023/07/04 06:25:56;;;;;;;8.48;1.63;;;;;;;-142.75;100.00;76050.66;5045958;28;20060;-66
2023/07/04 06:28:22;;;;;;;5.57;1.55;;;;;;;-142.75;100.00;76052.63;5046817;28;20671;-66
2023/07/04 06:30:47;;;;;;;7.65;1.45;;;;;;;-142.75;100.00;76062.47;5046562;28;20052;-65
2023/07/04 06:33:13;;;;;;;12.70;1.63;;;;;;;-142.75;100.00;76060.50;5046692;28;20036;-65
2023/07/04 06:35:41;;;;;;;6.28;1.58;;;;;;;-142.75;100.00;76058.53;5043344;28;20027;-65
2023/07/04 06:38:10;;;;;;;5.03;1.70;;;;;;;-142.75;100.00;76056.56;5044950;28;20024;-66
2023/07/04 06:40:35;;;;;;;12.00;1.52;;;;;;;-142.75;100.00;76066.41;5043455;28;20021;-66
2023/07/04 06:43:01;;;;;;;7.63;1.40;;;;;;;-142.75;100.00;76117.56;5045723;28;20027;-65
2023/07/04 06:45:26;;;;;;;8.35;1.15;;;;;;;-142.75;100.00;76113.63;5044464;28;20033;-65
2023/07/04 06:47:52;;;;;;;3.63;1.00;;;;;;;-142.75;100.00;76115.59;5044994;28;20033;-65
2023/07/04 06:50:17;;;;;;;8.15;1.55;;;;;;;-142.75;100.00;76133.31;5044165;28;20023;-65
2023/07/04 06:52:42;;;;;;;6.13;1.33;;;;;;;-142.75;100.00;76145.13;5045005;28;20033;-66
2023/07/04 06:55:08;;;;;;;13.48;1.33;;;;;;;-142.75;100.00;76137.25;5044017;28;20028;-67
2023/07/04 06:57:33;;;;;;;7.70;1.40;;;;;;;-142.75;100.00;76149.06;5044347;28;20025;-65
2023/07/04 06:59:59;;;;;;;7.80;1.13;;;;;;;-142.75;100.00;76133.31;5044265;28;20545;-66
2023/07/04 07:02:25;;;;;;;7.57;1.58;;;;;;;-142.75;100.00;76145.13;5045079;28;20036;-65
2023/07/04 07:04:50;;;;;;;5.40;1.02;;;;;;;-142.75;100.00;76154.97;5045668;28;20028;-65
2023/07/04 07:07:16;;;;;;;9.32;1.38;;;;;;;-142.75;100.00;76139.22;5044904;28;20029;-65
2023/07/04 07:09:42;;;;;;;11.15;1.73;;;;;;;-142.75;100.00;76147.09;5045692;28;20036;-66
2023/07/04 07:12:12;;;;;;;6.38;1.20;;;;;;;-142.75;100.00;76145.13;5045629;28;20064;-65
2023/07/04 07:14:38;;;;;;;3.42;1.05;;;;;;;-142.75;100.00;76164.81;5045646;28;20078;-65
2023/07/04 07:17:05;;;;;;;6.22;1.50;;;;;;;-142.75;100.00;76160.88;5057434;28;20630;-65
2023/07/04 07:19:31;;;;;;;8.50;1.27;;;;;;;-142.75;100.00;76180.56;5052335;28;20051;-65
2023/07/04 07:22:00;;;;;;;9.65;1.60;;;;;;;-142.75;100.00;76182.53;5044212;28;20651;-65
2023/07/04 07:24:29;;;;;;;5.97;1.55;;;;;;;-142.75;100.00;76151.03;5045414;28;20017;-66
2023/07/04 07:26:56;;;;;;;8.15;1.58;;;;;;;-142.75;100.00;76145.13;5044926;28;20037;-66
2023/07/04 07:29:21;;;;;;;8.85;1.38;;;;;;;-142.75;100.00;76154.97;5045137;28;20119;-66
2023/07/04 07:31:49;;;;;;;7.43;1.83;;;;;;;-142.75;100.00;76133.31;5045346;28;20025;-66
2023/07/04 07:34:14;;;;;;;5.63;1.30;;;;;;;-142.75;100.00;76103.78;5045842;28;20063;-65
2023/07/04 07:36:42;;;;;;;7.85;1.50;;;;;;;-142.75;100.00;76082.13;5046074;28;20024;-64
2023/07/04 07:39:12;;;;;;;3.83;0.80;;;;;;;-142.75;100.00;76074.25;5045582;28;20033;-64
2023/07/04 07:41:41;;;;;;;11.43;1.58;;;;;;;-142.75;100.00;76072.31;5045684;28;20537;-66
2023/07/04 07:44:07;;;;;;;11.50;1.42;;;;;;;-142.75;100.00;76076.22;5044989;28;20067;-66
2023/07/04 07:46:32;;;;;;;121.15;9.55;;;;;;;-142.75;100.00;76115.59;5044867;28;20020;-61
2023/07/04 07:48:58;;;;;;;428.38;37.17;;;;;;;-142.75;100.00;76137.25;5045099;28;20401;-64
2023/07/04 07:51:23;;;;;;;11.88;2.22;;;;;;;-142.75;100.00;76133.31;5044932;28;20025;-65
2023/07/04 07:53:49;;;;;;;7.80;1.27;;;;;;;-142.75;100.00;76151.03;5044949;28;20024;-66
2023/07/04 07:56:17;;;;;;;10.88;1.48;;;;;;;-142.75;100.00;76162.84;5045026;28;20500;-62
2023/07/04 07:58:42;;;;;;;7.10;1.02;;;;;;;-142.75;100.00;76154.97;5044979;28;20029;-63
2023/07/04 08:01:18;;;;;;;56.38;6.45;;;;;;;-142.75;100.00;76160.88;5045185;28;20032;-64
2023/07/04 08:03:44;;;;;;;13.23;2.20;;;;;;;-142.75;100.00;76156.94;5044975;28;20024;-63
2023/07/04 08:06:20;;;;;;;4.47;0.90;;;;;;;-142.75;100.00;76139.22;5045212;28;20496;-64
2023/07/04 08:08:45;;;;;;;9.55;1.60;;;;;;;-142.75;100.00;76141.19;5044576;28;20025;-63
2023/07/04 08:11:14;;;;;;;11.95;1.35;;;;;;;-142.75;100.00;76133.31;5044970;28;20081;-63
2023/07/04 08:13:40;;;;;;;11.32;1.80;;;;;;;-142.75;100.00;76133.31;5044841;28;20491;-63
2023/07/04 08:16:05;;;;;;;10.73;1.95;;;;;;;-142.75;100.00;76121.50;5044896;28;20051;-63
2023/07/04 08:18:31;;;;;;;9.10;1.60;;;;;;;-142.75;100.00;76097.88;5045512;28;20061;-63
2023/07/04 08:21:01;;;;;;;9.32;1.65;;;;;;;-142.75;100.00;76066.41;5044125;28;20697;-64
2023/07/04 08:23:28;;;;;;;5.32;1.05;;;;;;;-142.75;100.00;76082.13;5043763;28;20032;-64
2023/07/04 08:25:53;;;;;;;9.30;1.63;;;;;;;-142.75;100.00;76095.91;5044552;28;20033;-63
2023/07/04 08:28:19;;;;;;;6.43;1.20;;;;;;;-142.75;100.00;76066.41;5044891;28;20066;-64
2023/07/04 08:30:45;;;;;;;8.82;1.50;;;;;;;-142.75;100.00;76060.50;5044678;28;20115;-63
2023/07/04 08:33:16;;;;;;;11.00;1.63;;;;;;;-142.75;100.00;76036.88;5045087;28;20206;-63
2023/07/04 08:35:42;;;;;;;8.65;1.27;;;;;;;-142.75;100.00;76034.91;5044894;28;20017;-63
2023/07/04 08:38:07;;;;;;;7.72;1.25;;;;;;;-142.75;100.00;76042.78;5044830;28;20055;-64
2023/07/04 08:40:32;;;;;;;8.68;1.58;;;;;;;-142.75;100.00;75999.47;5044724;28;20071;-64
2023/07/04 08:43:00;;;;;;;4.45;1.42;;;;;;;-142.75;100.00;75977.81;5045363;28;20062;-63
2023/07/04 08:45:29;;;;;;;5.95;1.20;;;;;;;-142.75;100.00;75962.09;5044565;28;20439;-62
2023/07/04 08:47:56;;;;;;;5.95;1.23;;;;;;;-142.75;100.00;75934.53;5045025;28;20031;-62
2023/07/04 08:50:37;;;;;;;4.90;1.20;;;;;;;-142.75;100.00;75950.28;5044644;28;20017;-61
2023/07/04 08:53:13;;;;;;;6.68;1.85;;;;;;;-142.75;100.00;75928.63;5044633;28;20036;-63
2023/07/04 08:55:49;;;;;;;8.68;1.65;;;;;;;-142.75;100.00;75916.81;5044499;28;20025;-63
2023/07/04 08:58:17;;;;;;;8.07;1.48;;;;;;;-142.75;100.00;75912.88;5044652;28;20114;-62
2023/07/04 09:00:44;;;;;;;9.00;1.52;;;;;;;-142.75;100.00;75912.88;5044480;28;20031;-62
2023/07/04 09:03:38;;;;;;;6.28;1.58;;;;;;;-142.75;100.00;75922.72;5044724;28;20100;-62
2023/07/04 09:06:58;;;;;;;12.30;1.50;;;;;;;-142.75;100.00;75934.53;5044026;28;20029;-63
2023/07/04 09:09:51;;;;;;;4.72;1.02;;;;;;;-142.75;100.00;75950.28;5021858;28;20116;-63
2023/07/04 09:12:17;;;;;;;7.18;1.30;;;;;;;-142.75;100.00;75977.81;5018090;28;20606;-63
2023/07/04 09:14:52;;;;;;;6.40;0.98;;;;;;;-142.75;100.00;75967.97;5036946;28;20041;-62
2023/07/04 09:17:46;;;;;;;3.20;1.08;;;;;;;-142.75;100.00;75960.13;5045439;28;20116;-63
2023/07/04 09:20:11;;;;;;;5.65;1.35;;;;;;;-142.75;100.00;75969.94;5046707;28;20067;-63
2023/07/04 09:22:37;;;;;;;4.70;1.20;;;;;;;-142.75;100.00;75993.56;5046359;28;20396;-63
2023/07/04 09:25:04;;;;;;;8.70;1.63;;;;;;;-142.75;100.00;75987.66;5045316;28;20037;-62
2023/07/04 09:27:30;;;;;;;7.03;1.35;;;;;;;-142.75;100.00;75958.16;5043875;28;20025;-62
2023/07/04 09:29:57;;;;;;;6.50;1.05;;;;;;;-142.75;100.00;75942.41;5045469;28;20381;-61
2023/07/04 09:32:23;;;;;;;7.05;1.38;;;;;;;-142.75;100.00;75916.81;5046641;28;20626;-62
2023/07/04 09:34:53;;;;;;;5.05;1.20;;;;;;;-142.75;100.00;75883.34;5044998;28;20029;-64
2023/07/04 09:37:22;;;;;;;8.45;1.55;;;;;;;-142.75;100.00;75883.34;5046192;28;20033;-64
2023/07/04 09:39:49;;;;;;;8.20;1.23;;;;;;;-142.75;100.00;75871.53;5046664;28;20416;-64
2023/07/04 09:42:17;;;;;;;5.43;1.25;;;;;;;-142.75;100.00;75808.56;5047647;28;20530;-64
2023/07/04 09:44:43;;;;;;;5.38;1.10;;;;;;;-142.75;100.00;75763.28;5047070;28;20051;-63
2023/07/04 09:47:20;;;;;;;4.97;1.38;;;;;;;-142.75;100.00;75731.81;5048107;28;20021;-64
2023/07/04 09:49:45;;;;;;;10.82;1.98;;;;;;;-142.75;100.00;75759.38;5047303;28;20020;-64
2023/07/04 09:52:11;;;;;;;6.82;1.27;;;;;;;-142.75;98.02;75753.47;5047397;28;20095;-64
2023/07/04 09:54:39;;;;;;;8.95;1.45;;;;;;;-142.75;98.47;75729.84;5047061;28;20025;-64
2023/07/04 09:57:28;;;;;;;6.15;1.30;;;;;;;-142.75;100.00;75723.94;5047105;28;20044;-64
2023/07/04 09:59:55;;;;;;;6.75;1.25;;;;;;;-142.75;100.00;75757.41;5046294;28;20163;-64
2023/07/04 10:02:23;;;;;;;7.07;1.30;;;;;;;-142.75;100.00;75763.28;5047260;28;20117;-64
2023/07/04 10:04:50;;;;;;;6.03;0.95;;;;;;;-142.75;100.00;75794.78;5045459;28;20369;-64
2023/07/04 10:07:19;;;;;;;5.65;1.33;;;;;;;-142.75;100.00;75808.56;5045843;28;20111;-65
2023/07/04 10:09:52;;;;;;;6.70;1.42;;;;;;;-142.75;100.00;75849.91;5046381;28;20051;-64
2023/07/04 10:12:18;;;;;;;6.15;1.98;;;;;;;-142.75;100.00;75853.84;5046169;28;20034;-65
2023/07/04 10:14:50;;;;;;;2.53;1.20;;;;;;;-142.75;100.00;75838.09;5044187;28;20025;-64
2023/07/04 10:17:17;;;;;;;8.55;1.45;;;;;;;-142.75;100.00;75834.16;5046320;28;20029;-64
2023/07/04 10:19:46;;;;;;;6.68;1.35;;;;;;;-142.75;100.00;75812.50;5045849;28;20032;-64
2023/07/04 10:22:11;;;;;;;7.70;1.63;;;;;;;-142.75;100.00;75861.69;5045936;28;20090;-63
2023/07/04 10:24:37;;;;;;;8.10;1.27;;;;;;;-142.75;95.34;75903.03;5048335;28;20029;-64
2023/07/04 10:27:13;;;;;;;5.25;1.27;;;;;;;-142.75;100.00;75893.19;5046503;28;20025;-64
2023/07/04 10:29:48;;;;;;;5.60;1.38;;;;;;;-142.75;94.58;75895.16;5045842;28;20053;-64
2023/07/04 10:32:16;;;;;;;5.53;1.42;;;;;;;-142.75;100.00;75897.13;5045711;28;20029;-63
2023/07/04 10:34:43;;;;;;;6.85;1.55;;;;;;;-142.75;100.00;75906.97;5046304;28;20025;-63
2023/07/04 10:37:31;;;;;;;9.13;1.58;;;;;;;-142.75;96.13;75905.00;5046970;28;20033;-64
2023/07/04 10:39:59;;;;;;;2.60;0.80;;;;;;;-142.75;100.00;75926.66;5046203;28;20056;-64
2023/07/04 10:42:36;;;;;;;5.20;1.05;;;;;;;-142.75;100.00;75918.78;5046333;28;20031;-64
2023/07/04 10:45:04;;;;;;;4.40;1.20;;;;;;;-142.75;100.00;75873.50;5043986;28;20481;-63
2023/07/04 10:47:37;;;;;;;6.00;1.13;;;;;;;-142.75;100.00;75842.03;5045979;28;20111;-64
2023/07/04 10:50:13;;;;;;;7.55;0.95;;;;;;;-142.75;100.00;75857.78;5055542;28;20400;-64
2023/07/04 10:52:43;;;;;;;4.40;1.02;;;;;;;-142.75;100.00;75842.03;5066258;28;20546;-64
2023/07/04 10:55:28;;;;;;;5.13;1.08;;;;;;;-142.75;100.00;75781.00;5065954;28;20138;-64
2023/07/04 10:58:00;;;;;;;5.65;1.10;;;;;;;-142.75;92.84;75771.16;5066046;28;20540;-64
2023/07/04 11:00:42;;;;;;;4.00;1.17;;;;;;;-142.75;93.26;75775.09;5058235;28;20043;-64
2023/07/04 11:03:18;;;;;;;5.72;1.13;;;;;;;-142.75;98.42;75755.44;5044572;28;20063;-64
2023/07/04 11:05:52;;;;;;;4.72;0.90;;;;;;;-142.75;98.25;75775.09;5045919;28;20073;-62
2023/07/04 11:08:19;;;;;;;5.03;1.05;;;;;;;-142.75;96.51;75822.34;5046163;28;20151;-64
2023/07/04 11:10:50;;;;;;;5.13;1.08;;;;;;;-142.75;100.00;75800.69;5045903;28;20052;-64
2023/07/04 11:13:17;;;;;;;5.45;1.20;;;;;;;-142.75;100.00;75842.03;5041583;28;20480;-64